Time;durP1;ratioP1;P1;durP2;ratioP2;P2;SDS_P1;SDS_P2;PMS_P1;PMS_P2;Temp;Humidity;BMP_temperature;BMP_pressure;BME280_temperature;BME280_humidity;BME280_pressure;Samples;Min_cycle;Max_cycle;Signal;HPM_P1;HPM_P2
2022/08/03 00:00:05;;;;;;;;;;;14.90;64.00;;;;;;5071923;28;19908;-69
2022/08/03 00:02:32;;;;;;;;;;;14.90;63.90;;;;;;5071142;28;20425;-69
2022/08/03 00:04:58;;;;;;;;;;;14.90;64.60;;;;;;5071854;28;19918;-70
2022/08/03 00:07:25;;;;;;;;;;;14.90;65.10;;;;;;5070867;28;20380;-70
2022/08/03 00:09:52;;;;;;;;;;;14.90;64.80;;;;;;5070705;28;19912;-70
2022/08/03 00:12:18;;;;;;;;;;;14.90;66.00;;;;;;5070972;28;19912;-69
2022/08/03 00:14:45;;;;;;;;;;;14.90;65.40;;;;;;5070441;28;19904;-69
2022/08/03 00:17:11;;;;;;;;;;;14.90;65.20;;;;;;5069597;28;20277;-69
2022/08/03 00:19:38;;;;;;;;;;;14.90;64.90;;;;;;5054008;28;19911;-69
2022/08/03 00:22:04;;;;;;;;;;;15.00;65.30;;;;;;5071703;28;19904;-69
2022/08/03 00:24:31;;;;;;;;;;;15.00;65.20;;;;;;5070804;28;19961;-69
2022/08/03 00:26:57;;;;;;;;;;;15.00;64.90;;;;;;5071330;28;19916;-69
2022/08/03 00:29:24;;;;;;;;;;;15.00;65.70;;;;;;5071540;28;20243;-69
2022/08/03 00:31:50;;;;;;;;;;;14.90;65.70;;;;;;5071212;28;19999;-70
2022/08/03 00:34:17;;;;;;;;;;;15.00;64.80;;;;;;5071083;28;19904;-70
2022/08/03 00:36:43;;;;;;;;;;;15.10;64.30;;;;;;5070274;28;19912;-69
2022/08/03 00:41:35;;;;;;;;;;;15.10;64.50;;;;;;5065682;28;20019;-70
2022/08/03 00:44:02;;;;;;;;;;;15.10;65.10;;;;;;5071265;28;19904;-70
2022/08/03 00:46:28;;;;;;;;;;;15.20;64.80;;;;;;5071073;28;19916;-69
2022/08/03 00:48:55;;;;;;;;;;;15.20;65.40;;;;;;5071317;28;19904;-70
2022/08/03 00:51:21;;;;;;;;;;;15.20;66.00;;;;;;5070967;28;19919;-69
2022/08/03 00:53:48;;;;;;;;;;;15.30;65.30;;;;;;5071182;28;19904;-69
2022/08/03 00:56:15;;;;;;;;;;;15.30;65.30;;;;;;5071322;28;20520;-69
2022/08/03 00:58:42;;;;;;;;;;;15.30;65.70;;;;;;5071067;28;19908;-71
2022/08/03 01:01:11;;;;;;;;;;;15.30;65.50;;;;;;5070926;28;19905;-70
2022/08/03 01:03:37;;;;;;;;;;;15.30;66.80;;;;;;5068952;28;19908;-70
2022/08/03 01:06:07;;;;;;;;;;;15.40;66.20;;;;;;5069598;28;19916;-69
2022/08/03 01:08:39;;;;;;;;;;;15.40;66.30;;;;;;5070136;28;20278;-70
2022/08/03 01:11:09;;;;;;;;;;;15.50;65.40;;;;;;5070002;28;20186;-70
2022/08/03 01:13:36;;;;;;;;;;;15.60;65.90;;;;;;5070588;28;19926;-70
2022/08/03 01:16:07;;;;;;;;;;;15.60;65.60;;;;;;5072314;28;19936;-70
2022/08/03 01:18:36;;;;;;;;;;;15.70;66.50;;;;;;5071222;28;19958;-70
2022/08/03 01:21:03;;;;;;;;;;;15.70;66.00;;;;;;5070922;28;19962;-69
2022/08/03 01:23:48;;;;;;;;;;;15.70;65.60;;;;;;5070777;28;19920;-70
2022/08/03 01:26:33;;;;;;;;;;;15.80;65.70;;;;;;5071848;28;19917;-70
2022/08/03 01:29:20;;;;;;;;;;;15.90;65.50;;;;;;5071670;28;19904;-70
2022/08/03 01:31:49;;;;;;;;;;;16.10;65.80;;;;;;5070802;28;20316;-70
2022/08/03 01:34:15;;;;;;;;;;;16.20;66.00;;;;;;5070520;28;19905;-70
2022/08/03 01:37:00;;;;;;;;;;;16.20;66.60;;;;;;5070748;28;20030;-70
2022/08/03 01:39:27;;;;;;;;;;;16.30;67.10;;;;;;5071044;28;19911;-70
2022/08/03 01:41:58;;;;;;;;;;;16.40;66.40;;;;;;5052253;28;19920;-70
2022/08/03 01:44:25;;;;;;;;;;;16.50;66.40;;;;;;5070929;28;19905;-70
2022/08/03 01:46:52;;;;;;;;;;;16.60;67.10;;;;;;5070709;28;19912;-70
2022/08/03 01:49:18;;;;;;;;;;;16.70;66.90;;;;;;5070568;28;19904;-70
2022/08/03 01:51:45;;;;;;;;;;;16.80;67.50;;;;;;5071259;28;19988;-70
2022/08/03 01:54:12;;;;;;;;;;;16.90;67.00;;;;;;5070786;28;19904;-70
2022/08/03 01:56:38;;;;;;;;;;;16.90;66.90;;;;;;5070738;28;19951;-70
2022/08/03 01:59:05;;;;;;;;;;;17.00;67.40;;;;;;5070558;28;19967;-70
2022/08/03 02:01:31;;;;;;;;;;;17.20;66.20;;;;;;5070642;28;19961;-70
2022/08/03 02:03:58;;;;;;;;;;;17.30;66.20;;;;;;5071765;28;19904;-70
2022/08/03 02:06:25;;;;;;;;;;;17.40;66.00;;;;;;5070516;28;20314;-70
2022/08/03 02:08:51;;;;;;;;;;;17.40;65.50;;;;;;5072024;28;19916;-70
2022/08/03 02:11:18;;;;;;;;;;;17.40;65.00;;;;;;5072303;28;19909;-70
2022/08/03 02:13:44;;;;;;;;;;;17.50;65.50;;;;;;5067783;28;20022;-70
2022/08/03 02:16:11;;;;;;;;;;;17.60;63.90;;;;;;5067971;28;19911;-69
2022/08/03 02:18:38;;;;;;;;;;;17.70;63.70;;;;;;5068741;28;19908;-70
2022/08/03 02:21:05;;;;;;;;;;;17.70;64.50;;;;;;5069155;28;19923;-70
2022/08/03 03:15:02;;;;;;;;;;;18.20;64.80;;;;;;5053609;28;20393;-70
2022/08/03 03:17:28;;;;;;;;;;;18.30;64.30;;;;;;5053249;28;19920;-70
2022/08/03 03:19:55;;;;;;;;;;;18.40;63.70;;;;;;5054592;28;19944;-70
2022/08/03 03:22:21;;;;;;;;;;;18.30;64.40;;;;;;5054502;28;20363;-70
2022/08/03 03:24:50;;;;;;;;;;;18.30;64.70;;;;;;5054453;28;20031;-70
2022/08/03 03:27:17;;;;;;;;;;;18.30;65.00;;;;;;5052739;28;20385;-70
2022/08/03 03:29:43;;;;;;;;;;;18.30;65.20;;;;;;5054532;28;20274;-70
2022/08/03 03:32:10;;;;;;;;;;;18.30;65.40;;;;;;5053304;28;19912;-69
2022/08/03 03:34:36;;;;;;;;;;;18.40;65.70;;;;;;5053868;28;19911;-69
2022/08/03 03:37:04;;;;;;;;;;;18.60;64.50;;;;;;5054364;28;19905;-70
2022/08/03 03:39:30;;;;;;;;;;;18.50;65.00;;;;;;5054135;28;19908;-70
2022/08/03 03:41:57;;;;;;;;;;;18.50;65.00;;;;;;5052956;28;19904;-70
2022/08/03 03:44:29;;;;;;;;;;;18.50;64.80;;;;;;5051787;28;19992;-69
2022/08/03 03:46:59;;;;;;;;;;;18.50;65.30;;;;;;5051100;28;19948;-69
2022/08/03 03:49:26;;;;;;;;;;;18.50;66.10;;;;;;5051168;28;20325;-70
2022/08/03 03:51:53;;;;;;;;;;;18.50;65.80;;;;;;5050113;28;19959;-70
2022/08/03 03:54:20;;;;;;;;;;;18.50;65.80;;;;;;5052293;28;19909;-69
2022/08/03 03:56:47;;;;;;;;;;;18.60;65.80;;;;;;5051012;28;19913;-69
2022/08/03 03:59:13;;;;;;;;;;;18.70;65.00;;;;;;5052577;28;19919;-70
2022/08/03 04:01:40;;;;;;;;;;;18.70;65.60;;;;;;5052126;28;20003;-69
2022/08/03 04:12:21;;;;;;;;;;;18.80;65.20;;;;;;5049674;28;19955;-69
2022/08/03 04:14:47;;;;;;;;;;;18.80;64.90;;;;;;5049914;28;19920;-70
2022/08/03 04:17:14;;;;;;;;;;;18.80;64.90;;;;;;5051731;28;19905;-70
2022/08/03 04:19:44;;;;;;;;;;;18.80;65.20;;;;;;5054021;28;19912;-70
2022/08/03 04:22:11;;;;;;;;;;;18.80;65.20;;;;;;5053881;28;20005;-70
2022/08/03 04:24:42;;;;;;;;;;;19.00;64.20;;;;;;5053387;28;19905;-69
2022/08/03 04:27:10;;;;;;;;;;;19.00;64.00;;;;;;5053326;28;19935;-70
2022/08/03 04:29:37;;;;;;;;;;;19.00;64.80;;;;;;5053262;28;19909;-70
2022/08/03 04:32:04;;;;;;;;;;;19.00;64.80;;;;;;5052265;28;19919;-69
2022/08/03 04:34:31;;;;;;;;;;;19.10;64.30;;;;;;5052969;28;19908;-70
2022/08/03 04:36:58;;;;;;;;;;;19.30;63.70;;;;;;5035608;28;19904;-70
2022/08/03 04:39:26;;;;;;;;;;;19.30;64.20;;;;;;5051250;28;19927;-70
2022/08/03 04:41:53;;;;;;;;;;;19.20;64.50;;;;;;5051905;28;19911;-70
2022/08/03 04:44:20;;;;;;;;;;;19.20;64.50;;;;;;5053443;28;20323;-70
2022/08/03 04:46:47;;;;;;;;;;;19.20;65.00;;;;;;5048759;28;19916;-70
2022/08/03 04:49:13;;;;;;;;;;;19.20;64.50;;;;;;5051792;28;19909;-70
2022/08/03 04:51:41;;;;;;;;;;;19.20;65.20;;;;;;5050050;28;19924;-70
2022/08/03 04:54:11;;;;;;;;;;;19.20;64.10;;;;;;5051378;28;20015;-70
2022/08/03 04:56:41;;;;;;;;;;;19.20;63.20;;;;;;5051095;28;19951;-70
2022/08/03 04:59:08;;;;;;;;;;;19.30;63.40;;;;;;5050159;28;19916;-70
2022/08/03 05:01:34;;;;;;;;;;;19.30;64.00;;;;;;5049961;28;19915;-70
2022/08/03 05:04:01;;;;;;;;;;;19.40;64.00;;;;;;5050791;28;19905;-70
2022/08/03 05:06:27;;;;;;;;;;;19.40;64.10;;;;;;5050933;28;19955;-70
2022/08/03 05:08:54;;;;;;;;;;;19.40;64.20;;;;;;5050877;28;19905;-70
2022/08/03 05:11:21;;;;;;;;;;;19.50;64.20;;;;;;5051290;28;19912;-70
2022/08/03 05:13:47;;;;;;;;;;;19.50;64.30;;;;;;5049076;28;19921;-70
2022/08/03 05:16:14;;;;;;;;;;;19.40;64.00;;;;;;5048961;28;19932;-69
2022/08/03 05:18:41;;;;;;;;;;;19.50;64.00;;;;;;5051053;28;20006;-69
2022/08/03 05:21:08;;;;;;;;;;;19.40;63.90;;;;;;5049816;28;20323;-70
2022/08/03 05:31:42;;;;;;;;;;;19.30;63.00;;;;;;5052015;28;19966;-69
2022/08/03 05:34:08;;;;;;;;;;;19.30;63.20;;;;;;5048777;28;19909;-70
2022/08/03 05:36:35;;;;;;;;;;;19.30;64.00;;;;;;5049594;28;19908;-70
2022/08/03 05:39:01;;;;;;;;;;;19.30;63.20;;;;;;5050641;28;19923;-69
2022/08/03 05:41:28;;;;;;;;;;;19.30;63.00;;;;;;5050435;28;20426;-70
2022/08/03 05:43:55;;;;;;;;;;;19.30;63.00;;;;;;5050323;28;20361;-69
2022/08/03 05:46:21;;;;;;;;;;;19.30;62.70;;;;;;5048047;28;19988;-69
2022/08/03 05:48:48;;;;;;;;;;;19.30;63.30;;;;;;5049680;28;20311;-72
2022/08/03 05:51:14;;;;;;;;;;;19.30;63.40;;;;;;5049353;28;20285;-72
2022/08/03 05:53:41;;;;;;;;;;;19.30;63.50;;;;;;5049693;28;20265;-72
2022/08/03 05:56:08;;;;;;;;;;;19.20;63.60;;;;;;5048736;28;20505;-73
2022/08/03 05:58:34;;;;;;;;;;;19.30;62.90;;;;;;5050453;28;20366;-72
2022/08/03 06:01:01;;;;;;;;;;;19.40;62.60;;;;;;5050228;28;20346;-72
2022/08/03 06:03:28;;;;;;;;;;;19.50;62.50;;;;;;5049745;28;19923;-72
2022/08/03 06:05:57;;;;;;;;;;;19.50;62.70;;;;;;5049560;28;20392;-72
2022/08/03 06:08:23;;;;;;;;;;;19.40;63.30;;;;;;5050119;28;20000;-72
2022/08/03 06:10:50;;;;;;;;;;;19.40;63.00;;;;;;5050192;28;19909;-72
2022/08/03 06:13:16;;;;;;;;;;;19.40;63.10;;;;;;5050098;28;19966;-72
2022/08/03 06:15:43;;;;;;;;;;;19.40;63.20;;;;;;5047633;28;20370;-72
2022/08/03 06:18:10;;;;;;;;;;;19.40;63.60;;;;;;5047826;28;20522;-72
2022/08/03 06:20:36;;;;;;;;;;;19.40;63.40;;;;;;5049672;28;19909;-71
2022/08/03 06:23:03;;;;;;;;;;;19.40;63.30;;;;;;5050088;28;19912;-71
2022/08/03 06:25:29;;;;;;;;;;;19.30;63.30;;;;;;5049070;28;19916;-71
2022/08/03 06:27:56;;;;;;;;;;;19.30;63.50;;;;;;5050019;28;19916;-71
2022/08/03 08:00:33;;;;;;;;;;;18.10;75.00;;;;;;3309947;26;19924;-71
2022/08/03 08:03:00;;;;;;;;;;;18.10;75.00;;;;;;5074645;28;19948;-70
2022/08/03 08:05:26;;;;;;;;;;;18.00;74.90;;;;;;5069074;28;19923;-70
2022/08/03 08:07:53;;;;;;;;;;;18.10;73.80;;;;;;5069827;28;20417;-70
2022/08/03 08:10:20;;;;;;;;;;;18.00;73.40;;;;;;5066196;28;20242;-70
2022/08/03 08:12:47;;;;;;;;;;;18.00;72.90;;;;;;5069417;28;20011;-72
2022/08/03 08:15:13;;;;;;;;;;;18.00;72.50;;;;;;5067135;28;20328;-71
2022/08/03 08:17:43;;;;;;;;;;;18.00;72.50;;;;;;5046198;28;19908;-73
2022/08/03 08:20:10;;;;;;;;;;;18.00;71.90;;;;;;5069263;28;19954;-70
2022/08/03 08:22:37;;;;;;;;;;;18.00;71.70;;;;;;5074641;28;19904;-70
2022/08/03 08:25:03;;;;;;;;;;;18.00;71.70;;;;;;5080381;28;19922;-70
2022/08/03 08:27:30;;;;;;;;;;;18.00;71.80;;;;;;5069357;28;20347;-70
2022/08/03 08:29:56;;;;;;;;;;;18.00;71.40;;;;;;5066656;28;20293;-69
2022/08/03 08:32:23;;;;;;;;;;;18.00;71.40;;;;;;5068669;28;19957;-69
2022/08/03 08:34:49;;;;;;;;;;;18.00;71.50;;;;;;5069988;28;19908;-71
2022/08/03 08:37:16;;;;;;;;;;;17.90;71.70;;;;;;5069914;28;20337;-70
2022/08/03 08:39:42;;;;;;;;;;;17.90;71.70;;;;;;5067883;28;20325;-69
2022/08/03 08:42:09;;;;;;;;;;;17.80;72.20;;;;;;5067834;28;19954;-69
2022/08/03 08:44:36;;;;;;;;;;;17.90;72.10;;;;;;5067912;28;19912;-69
2022/08/03 08:47:03;;;;;;;;;;;17.80;72.00;;;;;;5068180;28;19959;-69
2022/08/03 08:49:29;;;;;;;;;;;17.90;71.60;;;;;;5067517;28;19920;-71
2022/08/03 08:51:56;;;;;;;;;;;17.90;71.50;;;;;;5065900;28;20280;-70
2022/08/03 08:54:22;;;;;;;;;;;17.90;71.30;;;;;;5067030;28;20313;-69
2022/08/03 08:56:52;;;;;;;;;;;17.90;71.30;;;;;;5068618;28;20278;-70
2022/08/03 09:01:57;;;;;;;;;;;17.90;70.90;;;;;;5065325;28;19931;-70
2022/08/03 09:04:24;;;;;;;;;;;18.00;70.80;;;;;;5068296;28;20327;-70
2022/08/03 09:06:51;;;;;;;;;;;18.00;70.30;;;;;;5066065;28;20031;-70
2022/08/03 09:09:18;;;;;;;;;;;18.00;70.30;;;;;;5068170;28;19955;-71
2022/08/03 09:11:44;;;;;;;;;;;18.00;70.40;;;;;;5068270;28;19937;-73
2022/08/03 09:14:11;;;;;;;;;;;18.00;70.40;;;;;;5068247;28;19909;-73
2022/08/03 09:16:37;;;;;;;;;;;18.00;70.40;;;;;;5067538;28;19989;-72
2022/08/03 09:19:11;;;;;;;;;;;17.90;70.50;;;;;;5066396;28;19908;-72
2022/08/03 09:21:38;;;;;;;;;;;17.90;70.50;;;;;;5067630;28;19908;-71
2022/08/03 09:24:05;;;;;;;;;;;17.90;70.60;;;;;;5067458;28;20293;-69
2022/08/03 09:26:33;;;;;;;;;;;17.90;70.70;;;;;;5067780;28;19920;-72
2022/08/03 09:29:00;;;;;;;;;;;17.90;70.60;;;;;;5066835;28;20372;-72
2022/08/03 09:31:31;;;;;;;;;;;17.90;70.50;;;;;;5065226;28;20010;-72
2022/08/03 09:33:59;;;;;;;;;;;17.90;70.60;;;;;;5066239;28;19915;-69
2022/08/03 09:36:36;;;;;;;;;;;17.90;70.60;;;;;;5066452;28;19984;-71
2022/08/03 09:39:21;;;;;;;;;;;17.90;70.60;;;;;;5066074;28;19908;-72
2022/08/03 09:42:06;;;;;;;;;;;17.90;70.80;;;;;;5067815;28;19912;-71
2022/08/03 09:44:41;;;;;;;;;;;17.90;70.60;;;;;;5067835;28;19913;-72
2022/08/03 09:47:09;;;;;;;;;;;17.90;70.60;;;;;;5053889;28;19916;-72
2022/08/03 09:49:36;;;;;;;;;;;17.80;70.70;;;;;;5066302;28;20278;-72
2022/08/03 09:52:11;;;;;;;;;;;17.80;71.20;;;;;;5066091;28;20008;-72
2022/08/03 09:54:37;;;;;;;;;;;17.90;70.60;;;;;;5066222;28;19913;-71
2022/08/03 09:57:04;;;;;;;;;;;17.80;70.70;;;;;;5065943;28;20358;-71
2022/08/03 09:59:31;;;;;;;;;;;17.80;70.80;;;;;;5066592;28;20003;-71
2022/08/03 11:33:22;;;;;;;;;;;17.60;71.00;;;;;;5042776;28;19931;-70
2022/08/03 11:35:59;;;;;;;;;;;17.70;71.00;;;;;;5046530;28;19925;-70
2022/08/03 11:38:26;;;;;;;;;;;17.60;71.30;;;;;;5030502;28;19919;-71
2022/08/03 11:40:52;;;;;;;;;;;17.60;71.30;;;;;;5031708;28;19951;-71
2022/08/03 11:43:22;;;;;;;;;;;17.60;71.40;;;;;;5049494;28;20000;-71
2022/08/03 11:46:20;;;;;;;;;;;17.60;71.60;;;;;;5047958;28;20417;-71
2022/08/03 11:48:47;;;;;;;;;;;17.60;71.60;;;;;;5040994;28;19908;-73
2022/08/03 11:51:23;;;;;;;;;;;17.70;71.30;;;;;;5049280;28;19988;-74
2022/08/03 11:53:56;;;;;;;;;;;17.70;71.20;;;;;;5049321;28;19917;-72
2022/08/03 11:56:23;;;;;;;;;;;17.70;71.10;;;;;;5042303;28;19915;-72
2022/08/03 11:58:54;;;;;;;;;;;17.70;71.30;;;;;;5028703;28;19917;-72
2022/08/03 12:01:20;;;;;;;;;;;17.60;71.60;;;;;;5027050;28;20282;-72
2022/08/03 12:03:47;;;;;;;;;;;17.60;71.70;;;;;;5048427;28;19915;-71
2022/08/03 12:06:14;;;;;;;;;;;17.70;71.60;;;;;;5049878;28;19917;-72
2022/08/03 12:08:41;;;;;;;;;;;17.70;71.80;;;;;;5032567;28;19917;-72
2022/08/03 12:11:09;;;;;;;;;;;17.60;71.80;;;;;;5051444;28;19909;-72
2022/08/03 12:13:36;;;;;;;;;;;17.60;71.90;;;;;;5051003;28;19944;-72
2022/08/03 12:16:03;;;;;;;;;;;17.60;72.20;;;;;;5033297;28;19916;-73
2022/08/03 12:18:29;;;;;;;;;;;17.60;72.10;;;;;;5050197;28;19919;-72
2022/08/03 12:21:03;;;;;;;;;;;17.60;72.20;;;;;;5050552;28;20313;-73
2022/08/03 12:23:29;;;;;;;;;;;17.60;72.30;;;;;;5032766;28;19913;-72
2022/08/03 12:26:00;;;;;;;;;;;17.60;72.40;;;;;;5050163;28;19916;-72
2022/08/03 12:28:27;;;;;;;;;;;17.60;72.30;;;;;;5032466;28;20019;-72
2022/08/03 12:30:53;;;;;;;;;;;17.50;72.60;;;;;;5050201;28;19991;-72
2022/08/03 13:07:56;;;;;;;;;;;17.40;73.90;;;;;;5086183;28;19976;-71
2022/08/03 13:10:30;;;;;;;;;;;17.30;74.20;;;;;;5087473;28;19914;-74
2022/08/03 13:12:58;;;;;;;;;;;17.30;74.30;;;;;;5088225;28;20011;-71
2022/08/03 13:15:26;;;;;;;;;;;17.30;74.40;;;;;;5088451;28;19941;-71
2022/08/03 13:17:54;;;;;;;;;;;17.30;74.40;;;;;;5086375;28;19949;-71
2022/08/03 13:20:21;;;;;;;;;;;17.30;74.60;;;;;;5088338;28;19912;-72
2022/08/03 13:22:47;;;;;;;;;;;17.30;74.70;;;;;;5085971;28;19904;-71
2022/08/03 13:25:14;;;;;;;;;;;17.20;75.00;;;;;;5087805;28;19919;-70
2022/08/03 13:27:40;;;;;;;;;;;17.20;75.10;;;;;;5087253;28;20305;-73
2022/08/03 13:30:07;;;;;;;;;;;17.20;75.20;;;;;;5090057;28;19908;-70
2022/08/03 13:32:34;;;;;;;;;;;17.20;75.20;;;;;;5089633;28;19953;-71
2022/08/03 13:35:01;;;;;;;;;;;17.20;75.30;;;;;;5089898;28;19919;-70
2022/08/03 13:37:28;;;;;;;;;;;17.10;75.50;;;;;;5089956;28;19908;-71
2022/08/03 13:39:55;;;;;;;;;;;17.10;75.60;;;;;;5089952;28;19903;-71
2022/08/03 13:42:21;;;;;;;;;;;17.10;75.60;;;;;;5090145;28;19904;-71
2022/08/03 13:44:48;;;;;;;;;;;17.10;75.80;;;;;;5089421;28;20026;-71
2022/08/03 13:47:15;;;;;;;;;;;17.10;75.80;;;;;;5090225;28;19927;-71
2022/08/03 13:49:41;;;;;;;;;;;17.10;75.90;;;;;;5089335;28;19914;-71
2022/08/03 13:52:08;;;;;;;;;;;17.10;76.00;;;;;;5071806;28;20353;-70
2022/08/03 13:54:34;;;;;;;;;;;17.10;76.00;;;;;;5090325;28;19935;-71
2022/08/03 13:57:01;;;;;;;;;;;17.10;76.00;;;;;;5089651;28;20365;-71
2022/08/03 13:59:27;;;;;;;;;;;17.10;76.10;;;;;;5089826;28;19951;-71
2022/08/03 14:01:54;;;;;;;;;;;17.10;76.20;;;;;;5090256;28;19915;-71
2022/08/03 14:04:21;;;;;;;;;;;17.00;76.20;;;;;;5089984;28;19911;-71
2022/08/03 14:39:15;;;;;;;;;;;16.90;77.40;;;;;;5063796;28;19947;-70
2022/08/03 14:41:42;;;;;;;;;;;16.90;77.50;;;;;;5086800;28;19922;-70
2022/08/03 14:44:08;;;;;;;;;;;16.90;77.60;;;;;;5089716;28;19919;-71
2022/08/03 14:46:35;;;;;;;;;;;16.90;77.80;;;;;;5089968;28;20297;-70
2022/08/03 14:49:02;;;;;;;;;;;16.90;77.70;;;;;;5090519;28;20347;-70
2022/08/03 14:51:28;;;;;;;;;;;16.90;77.90;;;;;;5071719;28;19916;-71
2022/08/03 14:53:55;;;;;;;;;;;16.90;77.80;;;;;;5089603;28;19992;-71
2022/08/03 14:56:22;;;;;;;;;;;16.90;77.90;;;;;;5090428;28;19915;-71
2022/08/03 14:58:48;;;;;;;;;;;16.90;77.90;;;;;;5093763;28;19908;-70
2022/08/03 15:01:15;;;;;;;;;;;16.90;77.90;;;;;;5093868;28;19966;-70
2022/08/03 15:03:42;;;;;;;;;;;17.00;77.90;;;;;;5092428;28;19952;-70
2022/08/03 15:06:09;;;;;;;;;;;16.90;77.90;;;;;;5075747;28;19939;-70
2022/08/03 15:08:35;;;;;;;;;;;16.90;78.00;;;;;;5093573;28;20278;-71
2022/08/03 15:11:02;;;;;;;;;;;16.90;78.10;;;;;;5091943;28;19912;-70
2022/08/03 15:13:28;;;;;;;;;;;16.80;78.20;;;;;;5093237;28;19922;-70
2022/08/03 15:15:56;;;;;;;;;;;16.90;78.20;;;;;;5093570;28;19923;-70
2022/08/03 15:18:23;;;;;;;;;;;16.80;78.30;;;;;;5092812;28;19930;-71
2022/08/03 15:20:49;;;;;;;;;;;16.80;78.20;;;;;;5093120;28;20289;-71
2022/08/03 15:23:16;;;;;;;;;;;16.80;78.30;;;;;;5093507;28;20380;-70
2022/08/03 15:25:43;;;;;;;;;;;16.80;78.70;;;;;;5093133;28;19930;-70
2022/08/03 15:28:10;;;;;;;;;;;16.80;78.50;;;;;;5092850;28;20273;-70
2022/08/03 15:30:37;;;;;;;;;;;16.80;78.60;;;;;;5093412;28;19908;-70
2022/08/03 15:33:03;;;;;;;;;;;16.80;78.50;;;;;;5093322;28;19935;-71
2022/08/03 15:35:31;;;;;;;;;;;16.80;78.70;;;;;;5093067;28;19926;-71
2022/08/03 15:37:58;;;;;;;;;;;16.80;78.60;;;;;;5074986;28;20000;-70
2022/08/03 16:11:48;;;;;;;;;;;16.70;79.70;;;;;;5082563;28;19927;-71
2022/08/03 16:14:14;;;;;;;;;;;16.70;79.70;;;;;;5092040;28;19966;-70
2022/08/03 16:16:41;;;;;;;;;;;16.60;79.80;;;;;;5091991;28;19927;-71
2022/08/03 16:19:08;;;;;;;;;;;16.60;80.10;;;;;;5092724;28;20005;-71
2022/08/03 16:21:34;;;;;;;;;;;16.60;80.20;;;;;;5092055;28;19908;-70
2022/08/03 16:24:02;;;;;;;;;;;16.60;80.10;;;;;;5092195;28;19945;-71
2022/08/03 16:26:29;;;;;;;;;;;16.70;80.10;;;;;;5092181;28;19958;-70
2022/08/03 16:28:55;;;;;;;;;;;16.60;80.10;;;;;;5092275;28;19911;-70
2022/08/03 16:31:25;;;;;;;;;;;16.60;80.20;;;;;;5091365;28;20300;-70
2022/08/03 16:33:52;;;;;;;;;;;16.60;80.40;;;;;;5074618;28;19991;-71
2022/08/03 16:36:19;;;;;;;;;;;16.60;80.50;;;;;;5074144;28;19923;-71
2022/08/03 16:38:46;;;;;;;;;;;16.60;80.50;;;;;;5092261;28;19930;-70
2022/08/03 16:41:12;;;;;;;;;;;16.60;80.50;;;;;;5090887;28;19908;-70
2022/08/03 16:43:39;;;;;;;;;;;16.60;80.60;;;;;;5090038;28;19907;-71
2022/08/03 16:46:05;;;;;;;;;;;16.60;80.80;;;;;;5091987;28;19965;-70
2022/08/03 16:48:32;;;;;;;;;;;16.60;80.80;;;;;;5092016;28;19908;-71
2022/08/03 16:50:58;;;;;;;;;;;16.60;80.80;;;;;;5091759;28;19912;-71
2022/08/03 16:53:25;;;;;;;;;;;16.60;80.80;;;;;;5091631;28;19918;-70
2022/08/03 16:55:52;;;;;;;;;;;16.50;81.10;;;;;;5091570;28;19950;-71
2022/08/03 16:58:19;;;;;;;;;;;16.50;81.10;;;;;;5091712;28;19904;-71
2022/08/03 17:00:45;;;;;;;;;;;16.50;81.30;;;;;;5091494;28;19908;-71
2022/08/03 17:03:12;;;;;;;;;;;16.50;81.30;;;;;;5072434;28;19912;-70
2022/08/03 17:05:38;;;;;;;;;;;16.60;81.50;;;;;;5073047;28;19912;-70
2022/08/03 17:08:05;;;;;;;;;;;16.60;81.30;;;;;;5091933;28;19919;-70
2022/08/03 17:10:31;;;;;;;;;;;16.60;81.30;;;;;;5090975;28;19955;-70
2022/08/03 18:44:12;;;;;;;;;;;17.00;80.80;;;;;;1411474;26;19924;-65
2022/08/03 18:47:05;;;;;;;;;;;17.00;80.70;;;;;;5073458;28;19933;-65
2022/08/03 18:49:34;;;;;;;;;;;17.10;80.50;;;;;;5080247;28;19912;-65
2022/08/03 18:52:04;;;;;;;;;;;17.10;80.30;;;;;;5091198;28;20285;-65
2022/08/03 18:54:52;;;;;;;;;;;17.20;80.30;;;;;;5090239;28;19904;-66
2022/08/03 18:57:21;;;;;;;;;;;17.20;80.00;;;;;;5072610;28;19947;-65
2022/08/03 19:00:08;;;;;;;;;;;17.10;80.10;;;;;;5074448;28;19951;-65
2022/08/03 19:02:37;;;;;;;;;;;17.20;80.10;;;;;;5078355;28;20456;-66
2022/08/03 19:05:06;;;;;;;;;;;17.20;79.90;;;;;;5085435;28;19908;-66
2022/08/03 19:07:33;;;;;;;;;;;17.20;79.70;;;;;;5071285;28;19920;-66
2022/08/03 19:10:02;;;;;;;;;;;17.20;79.70;;;;;;5083936;28;19904;-66
2022/08/03 19:12:41;;;;;;;;;;;17.20;79.70;;;;;;5090938;28;20292;-65
2022/08/03 19:15:09;;;;;;;;;;;17.30;79.50;;;;;;5083377;28;19912;-65
2022/08/03 19:17:40;;;;;;;;;;;17.30;79.30;;;;;;5090367;28;19904;-65
2022/08/03 19:20:08;;;;;;;;;;;17.30;79.40;;;;;;5093952;28;19949;-66
2022/08/03 19:22:35;;;;;;;;;;;17.30;79.10;;;;;;5090738;28;19915;-68
2022/08/03 19:25:02;;;;;;;;;;;17.30;78.90;;;;;;5089077;28;20110;-68
2022/08/03 19:27:29;;;;;;;;;;;17.40;78.90;;;;;;5084361;28;20300;-68
2022/08/03 19:29:56;;;;;;;;;;;17.40;78.80;;;;;;5070568;28;19904;-68
2022/08/03 19:32:23;;;;;;;;;;;17.40;78.80;;;;;;5079816;28;20369;-68
2022/08/03 19:34:50;;;;;;;;;;;17.50;78.50;;;;;;5081707;28;20353;-68
2022/08/03 19:37:16;;;;;;;;;;;17.60;78.00;;;;;;5076568;28;19919;-68
2022/08/03 19:39:43;;;;;;;;;;;17.60;78.00;;;;;;5082674;28;19916;-68
2022/08/03 19:42:11;;;;;;;;;;;17.60;78.00;;;;;;5070452;28;19919;-68
2022/08/03 20:16:41;;;;;;;;;;;17.80;76.50;;;;;;5090402;28;20680;-68
2022/08/03 20:19:08;;;;;;;;;;;17.90;76.60;;;;;;5108764;28;19960;-68
2022/08/03 20:21:35;;;;;;;;;;;17.80;76.40;;;;;;5114224;28;19904;-68
2022/08/03 20:24:03;;;;;;;;;;;17.80;76.60;;;;;;5114512;28;19910;-68
2022/08/03 20:26:30;;;;;;;;;;;17.80;76.40;;;;;;5108388;28;20395;-68
2022/08/03 20:29:07;;;;;;;;;;;17.80;76.60;;;;;;5106489;28;20254;-68
2022/08/03 20:31:34;;;;;;;;;;;17.80;76.70;;;;;;5114356;28;19903;-68
2022/08/03 20:34:01;;;;;;;;;;;17.80;76.70;;;;;;5113971;28;20318;-68
2022/08/03 20:36:27;;;;;;;;;;;17.80;76.60;;;;;;5112297;28;20411;-68
2022/08/03 20:38:54;;;;;;;;;;;17.80;76.70;;;;;;5096169;28;19911;-68
2022/08/03 20:41:20;;;;;;;;;;;17.80;76.40;;;;;;5111595;28;19904;-68
2022/08/03 20:43:50;;;;;;;;;;;17.80;76.50;;;;;;5102233;28;19957;-68
2022/08/03 20:46:17;;;;;;;;;;;17.70;76.50;;;;;;5092320;28;19912;-68
2022/08/03 20:48:43;;;;;;;;;;;17.80;76.50;;;;;;5097987;28;19911;-68
2022/08/03 20:51:10;;;;;;;;;;;17.80;76.50;;;;;;5094008;28;19912;-68
2022/08/03 20:53:40;;;;;;;;;;;17.80;76.40;;;;;;5111943;28;19915;-68
2022/08/03 20:56:07;;;;;;;;;;;17.80;76.30;;;;;;5093662;28;20326;-68
2022/08/03 20:58:35;;;;;;;;;;;17.80;76.20;;;;;;5097883;28;19904;-68
2022/08/03 21:01:01;;;;;;;;;;;17.80;76.10;;;;;;5112087;28;19951;-68
2022/08/03 21:03:28;;;;;;;;;;;17.80;76.20;;;;;;5093315;28;20368;-67
2022/08/03 21:05:55;;;;;;;;;;;17.80;76.10;;;;;;5109210;28;20023;-68
2022/08/03 21:08:21;;;;;;;;;;;17.80;76.10;;;;;;5106061;28;19950;-68
2022/08/03 21:10:48;;;;;;;;;;;17.80;76.00;;;;;;5093661;28;21123;-64
2022/08/03 21:13:15;;;;;;;;;;;17.90;75.90;;;;;;5093329;28;19990;-65
2022/08/03 21:15:42;;;;;;;;;;;17.80;76.00;;;;;;5111360;28;19918;-65
2022/08/03 21:18:12;;;;;;;;;;;17.90;76.20;;;;;;5084117;28;19923;-65
2022/08/03 21:20:40;;;;;;;;;;;17.90;76.20;;;;;;5111503;28;19929;-65
2022/08/03 21:23:08;;;;;;;;;;;17.90;75.80;;;;;;5065650;28;19954;-65
2022/08/03 21:25:34;;;;;;;;;;;17.80;75.90;;;;;;5111913;28;19908;-65
2022/08/03 21:28:01;;;;;;;;;;;17.90;76.00;;;;;;5107404;28;19969;-65
2022/08/03 21:30:28;;;;;;;;;;;17.90;76.10;;;;;;5081677;28;20383;-65
2022/08/03 21:32:55;;;;;;;;;;;17.90;76.10;;;;;;5108045;28;19923;-65
2022/08/03 21:35:22;;;;;;;;;;;17.90;76.20;;;;;;5111618;28;19907;-65
2022/08/03 21:38:17;;;;;;;;;;;17.90;76.10;;;;;;5105791;28;19918;-65
2022/08/03 21:40:36;;;;;;;;;;;17.90;76.10;;;;;;5111154;28;19903;-65
2022/08/03 21:43:02;;;;;;;;;;;17.90;76.20;;;;;;5111196;28;19908;-65
2022/08/03 21:45:29;;;;;;;;;;;17.90;76.20;;;;;;5111084;28;20459;-65
2022/08/03 21:47:55;;;;;;;;;;;18.00;76.10;;;;;;5079919;28;20578;-65
2022/08/03 21:50:22;;;;;;;;;;;17.90;76.00;;;;;;5110884;28;20365;-66
2022/08/03 21:52:48;;;;;;;;;;;17.90;76.10;;;;;;5110925;28;19908;-65
2022/08/03 21:55:15;;;;;;;;;;;18.00;76.10;;;;;;5096440;28;19908;-65
2022/08/03 21:57:44;;;;;;;;;;;18.00;75.90;;;;;;5109853;28;19915;-65
2022/08/03 22:00:14;;;;;;;;;;;17.90;76.00;;;;;;5107396;28;19961;-65
2022/08/03 22:02:41;;;;;;;;;;;18.00;76.00;;;;;;5110571;28;19908;-65
2022/08/03 22:05:08;;;;;;;;;;;18.00;76.10;;;;;;5110485;28;19904;-66
2022/08/03 22:07:35;;;;;;;;;;;18.00;76.20;;;;;;5110692;28;19920;-65
2022/08/03 22:10:02;;;;;;;;;;;17.90;76.30;;;;;;5082809;28;19907;-65
2022/08/03 22:12:29;;;;;;;;;;;17.90;76.50;;;;;;5110901;28;19918;-65
2022/08/03 22:14:56;;;;;;;;;;;17.90;76.60;;;;;;5092722;28;20260;-65